sensor_id;sensor_type;location;lat;lon;timestamp;pressure;altitude;pressure_sealevel;temperature;humidity
4745;BME280;2386;42.138;24.746;2023-03-17T00:00:15;99846.47;;;7.70;93.19
4745;BME280;2386;42.138;24.746;2023-03-17T00:02:43;99857.06;;;7.72;93.53
4745;BME280;2386;42.138;24.746;2023-03-17T00:05:22;99861.44;;;7.79;93.29
4745;BME280;2386;42.138;24.746;2023-03-17T00:07:49;99854.16;;;7.80;92.95
4745;BME280;2386;42.138;24.746;2023-03-17T00:10:26;99861.03;;;7.89;92.94
4745;BME280;2386;42.138;24.746;2023-03-17T00:12:53;99861.88;;;8.03;92.55
4745;BME280;2386;42.138;24.746;2023-03-17T00:15:20;99857.72;;;7.94;93.16
4745;BME280;2386;42.138;24.746;2023-03-17T00:17:47;99852.31;;;7.94;92.21
4745;BME280;2386;42.138;24.746;2023-03-17T00:20:33;99846.47;;;7.77;93.13
4745;BME280;2386;42.138;24.746;2023-03-17T00:23:00;99854.38;;;7.98;93.15
4745;BME280;2386;42.138;24.746;2023-03-17T00:25:33;99857.50;;;8.02;94.42
4745;BME280;2386;42.138;24.746;2023-03-17T00:27:59;99850.63;;;7.79;92.64
4745;BME280;2386;42.138;24.746;2023-03-17T00:30:26;99858.75;;;7.93;94.40
4745;BME280;2386;42.138;24.746;2023-03-17T00:32:56;99849.81;;;7.99;92.67
4745;BME280;2386;42.138;24.746;2023-03-17T00:35:26;99858.53;;;7.87;94.48
4745;BME280;2386;42.138;24.746;2023-03-17T00:37:54;99855.81;;;7.74;95.61
4745;BME280;2386;42.138;24.746;2023-03-17T00:40:23;99858.13;;;7.77;96.01
4745;BME280;2386;42.138;24.746;2023-03-17T00:42:52;99855.63;;;7.82;95.70
4745;BME280;2386;42.138;24.746;2023-03-17T00:45:22;99854.56;;;7.70;95.63
4745;BME280;2386;42.138;24.746;2023-03-17T00:47:49;99860.41;;;7.74;94.75
4745;BME280;2386;42.138;24.746;2023-03-17T00:50:21;99855.19;;;7.66;94.50
4745;BME280;2386;42.138;24.746;2023-03-17T00:52:47;99857.66;;;7.54;95.93
4745;BME280;2386;42.138;24.746;2023-03-17T00:55:14;99850.81;;;7.51;97.40
4745;BME280;2386;42.138;24.746;2023-03-17T00:57:40;99848.75;;;7.67;96.24
4745;BME280;2386;42.138;24.746;2023-03-17T01:02:41;99861.44;;;7.86;94.40
4745;BME280;2386;42.138;24.746;2023-03-17T01:05:06;99865.19;;;8.05;93.58
4745;BME280;2386;42.138;24.746;2023-03-17T01:07:32;99858.97;;;8.04;92.81
4745;BME280;2386;42.138;24.746;2023-03-17T01:09:57;99871.81;;;7.82;93.01
4745;BME280;2386;42.138;24.746;2023-03-17T01:12:23;99874.31;;;7.77;94.99
4745;BME280;2386;42.138;24.746;2023-03-17T01:14:50;99868.69;;;7.66;94.85
4745;BME280;2386;42.138;24.746;2023-03-17T01:17:17;99877.22;;;7.89;94.57
4745;BME280;2386;42.138;24.746;2023-03-17T01:19:44;99874.53;;;7.96;93.36
4745;BME280;2386;42.138;24.746;2023-03-17T01:22:10;99873.28;;;7.78;94.24
4745;BME280;2386;42.138;24.746;2023-03-17T01:24:35;99882.00;;;7.87;93.94
4745;BME280;2386;42.138;24.746;2023-03-17T01:27:02;99887.19;;;7.75;94.32
4745;BME280;2386;42.138;24.746;2023-03-17T01:29:27;99881.19;;;8.00;92.45
4745;BME280;2386;42.138;24.746;2023-03-17T01:31:53;99877.44;;;7.87;93.14
4745;BME280;2386;42.138;24.746;2023-03-17T01:34:18;99879.72;;;7.84;93.42
4745;BME280;2386;42.138;24.746;2023-03-17T01:36:44;99871.84;;;7.96;92.91
4745;BME280;2386;42.138;24.746;2023-03-17T01:39:09;99884.31;;;8.03;92.08
4745;BME280;2386;42.138;24.746;2023-03-17T01:41:35;99890.75;;;8.15;90.88
4745;BME280;2386;42.138;24.746;2023-03-17T01:44:02;99884.69;;;8.20;90.12
4745;BME280;2386;42.138;24.746;2023-03-17T01:46:29;99889.25;;;8.26;89.58
4745;BME280;2386;42.138;24.746;2023-03-17T01:56:48;99887.00;;;8.03;89.68
4745;BME280;2386;42.138;24.746;2023-03-17T01:59:19;99890.75;;;8.09;90.08
4745;BME280;2386;42.138;24.746;2023-03-17T02:01:49;99905.69;;;7.91;88.36
4745;BME280;2386;42.138;24.746;2023-03-17T02:04:17;99895.72;;;7.99;89.39
4745;BME280;2386;42.138;24.746;2023-03-17T02:06:43;99907.56;;;7.98;89.49
4745;BME280;2386;42.138;24.746;2023-03-17T02:09:10;99908.38;;;7.72;91.02
4745;BME280;2386;42.138;24.746;2023-03-17T02:11:37;99901.94;;;7.86;90.13
4745;BME280;2386;42.138;24.746;2023-03-17T02:14:02;99910.47;;;7.89;89.24
4745;BME280;2386;42.138;24.746;2023-03-17T02:16:28;99913.34;;;7.75;89.06
4745;BME280;2386;42.138;24.746;2023-03-17T02:18:54;99914.59;;;7.72;89.86
4745;BME280;2386;42.138;24.746;2023-03-17T02:23:54;99916.47;;;7.78;88.61
4745;BME280;2386;42.138;24.746;2023-03-17T02:26:21;99906.50;;;7.79;89.09
4745;BME280;2386;42.138;24.746;2023-03-17T02:28:48;99910.03;;;7.79;87.95
4745;BME280;2386;42.138;24.746;2023-03-17T02:31:14;99920.03;;;7.85;89.50
4745;BME280;2386;42.138;24.746;2023-03-17T02:33:40;99919.22;;;8.05;87.05
4745;BME280;2386;42.138;24.746;2023-03-17T02:36:07;99925.44;;;8.05;85.96
4745;BME280;2386;42.138;24.746;2023-03-17T02:38:34;99916.28;;;8.19;84.90
4745;BME280;2386;42.138;24.746;2023-03-17T02:41:00;99925.63;;;8.30;84.33
4745;BME280;2386;42.138;24.746;2023-03-17T02:43:25;99936.69;;;8.15;85.08
4745;BME280;2386;42.138;24.746;2023-03-17T02:45:51;99932.91;;;8.30;83.87
4745;BME280;2386;42.138;24.746;2023-03-17T02:48:17;99926.91;;;8.41;82.41
4745;BME280;2386;42.138;24.746;2023-03-17T02:50:43;99936.88;;;8.47;82.38
4745;BME280;2386;42.138;24.746;2023-03-17T02:53:08;99931.28;;;8.42;82.83
4745;BME280;2386;42.138;24.746;2023-03-17T02:55:34;99935.00;;;8.28;83.76
4745;BME280;2386;42.138;24.746;2023-03-17T02:57:59;99935.84;;;8.35;83.75
4745;BME280;2386;42.138;24.746;2023-03-17T03:00:26;99937.50;;;8.42;83.01
4745;BME280;2386;42.138;24.746;2023-03-17T03:02:52;99949.56;;;8.40;82.99
4745;BME280;2386;42.138;24.746;2023-03-17T03:05:17;99943.94;;;8.15;84.11
4745;BME280;2386;42.138;24.746;2023-03-17T03:07:44;99951.63;;;8.18;83.83
4745;BME280;2386;42.138;24.746;2023-03-17T03:10:09;99948.28;;;8.29;83.20
4745;BME280;2386;42.138;24.746;2023-03-17T03:12:35;99951.44;;;8.46;82.27
4745;BME280;2386;42.138;24.746;2023-03-17T03:15:00;99953.69;;;8.29;82.36
4745;BME280;2386;42.138;24.746;2023-03-17T03:17:26;99968.25;;;8.28;83.52
4745;BME280;2386;42.138;24.746;2023-03-17T03:19:51;99960.81;;;8.43;82.12
4745;BME280;2386;42.138;24.746;2023-03-17T03:22:17;99971.19;;;8.60;81.89
4745;BME280;2386;42.138;24.746;2023-03-17T03:24:42;99964.94;;;8.59;80.89
4745;BME280;2386;42.138;24.746;2023-03-17T03:27:08;99957.88;;;8.45;81.74
4745;BME280;2386;42.138;24.746;2023-03-17T03:29:33;99958.50;;;8.60;80.52
4745;BME280;2386;42.138;24.746;2023-03-17T03:31:59;99963.28;;;8.65;79.42
4745;BME280;2386;42.138;24.746;2023-03-17T03:34:25;99965.56;;;8.68;79.73
4745;BME280;2386;42.138;24.746;2023-03-17T03:36:50;99961.84;;;8.55;80.75
4745;BME280;2386;42.138;24.746;2023-03-17T03:39:15;99965.38;;;8.49;81.73
4745;BME280;2386;42.138;24.746;2023-03-17T03:41:41;99962.88;;;8.48;80.74
4745;BME280;2386;42.138;24.746;2023-03-17T03:44:06;99956.03;;;8.45;79.89
4745;BME280;2386;42.138;24.746;2023-03-17T03:46:32;99964.53;;;8.55;80.31
4745;BME280;2386;42.138;24.746;2023-03-17T03:48:57;99966.81;;;8.65;79.20
4745;BME280;2386;42.138;24.746;2023-03-17T03:51:23;99967.88;;;8.51;80.03
4745;BME280;2386;42.138;24.746;2023-03-17T03:53:48;99971.59;;;8.56;79.45
4745;BME280;2386;42.138;24.746;2023-03-17T03:56:13;99969.94;;;8.62;78.14
4745;BME280;2386;42.138;24.746;2023-03-17T03:58:39;99975.16;;;8.44;77.88
4745;BME280;2386;42.138;24.746;2023-03-17T04:01:06;99986.16;;;8.42;78.38
4745;BME280;2386;42.138;24.746;2023-03-17T04:03:34;99984.47;;;8.15;78.47
4745;BME280;2386;42.138;24.746;2023-03-17T04:05:59;99981.13;;;8.19;78.69
4745;BME280;2386;42.138;24.746;2023-03-17T04:08:25;99979.50;;;8.12;79.92
4745;BME280;2386;42.138;24.746;2023-03-17T04:10:51;99985.53;;;8.34;78.51
4745;BME280;2386;42.138;24.746;2023-03-17T04:13:16;99990.28;;;8.05;79.65
4745;BME280;2386;42.138;24.746;2023-03-17T04:15:42;99986.53;;;8.00;78.75
4745;BME280;2386;42.138;24.746;2023-03-17T04:18:08;99983.56;;;7.81;79.53
4745;BME280;2386;42.138;24.746;2023-03-17T04:20:33;99986.50;;;7.86;79.70
4745;BME280;2386;42.138;24.746;2023-03-17T04:22:59;99999.56;;;7.76;80.26
4745;BME280;2386;42.138;24.746;2023-03-17T04:25:25;99995.78;;;7.71;80.13
4745;BME280;2386;42.138;24.746;2023-03-17T04:27:51;100003.78;;;7.99;79.65
4745;BME280;2386;42.138;24.746;2023-03-17T04:30:16;100014.00;;;8.16;79.09
4745;BME280;2386;42.138;24.746;2023-03-17T04:32:43;100016.88;;;8.28;78.63
4745;BME280;2386;42.138;24.746;2023-03-17T04:35:12;100017.72;;;8.29;77.57
4745;BME280;2386;42.138;24.746;2023-03-17T04:37:38;100018.34;;;8.04;77.34
4745;BME280;2386;42.138;24.746;2023-03-17T04:40:05;100018.53;;;8.03;78.75
4745;BME280;2386;42.138;24.746;2023-03-17T04:42:34;100029.75;;;8.00;78.24
4745;BME280;2386;42.138;24.746;2023-03-17T04:44:59;100042.63;;;7.98;79.28
4745;BME280;2386;42.138;24.746;2023-03-17T04:47:25;100033.41;;;7.79;79.35
4745;BME280;2386;42.138;24.746;2023-03-17T04:49:51;100034.66;;;7.76;79.18
4745;BME280;2386;42.138;24.746;2023-03-17T04:52:16;100044.28;;;7.99;78.88
4745;BME280;2386;42.138;24.746;2023-03-17T04:54:41;100038.66;;;7.94;79.10
4745;BME280;2386;42.138;24.746;2023-03-17T04:57:08;100049.41;;;7.80;80.04
4745;BME280;2386;42.138;24.746;2023-03-17T04:59:34;100051.81;;;8.10;79.05
4745;BME280;2386;42.138;24.746;2023-03-17T05:01:59;100043.66;;;7.97;78.43
4745;BME280;2386;42.138;24.746;2023-03-17T05:04:26;100056.81;;;8.13;78.95
4745;BME280;2386;42.138;24.746;2023-03-17T05:06:51;100043.47;;;8.18;77.74
4745;BME280;2386;42.138;24.746;2023-03-17T05:09:17;100055.13;;;8.12;77.67
4745;BME280;2386;42.138;24.746;2023-03-17T05:11:42;100063.03;;;8.20;78.69
4745;BME280;2386;42.138;24.746;2023-03-17T05:14:08;100067.78;;;8.05;77.75
4745;BME280;2386;42.138;24.746;2023-03-17T05:16:33;100064.69;;;8.08;77.71
4745;BME280;2386;42.138;24.746;2023-03-17T05:18:58;100069.03;;;8.02;77.98
4745;BME280;2386;42.138;24.746;2023-03-17T05:21:24;100084.19;;;8.03;78.08
4745;BME280;2386;42.138;24.746;2023-03-17T05:23:49;100079.63;;;8.04;78.37
4745;BME280;2386;42.138;24.746;2023-03-17T05:26:15;100089.75;;;7.88;78.74
4745;BME280;2386;42.138;24.746;2023-03-17T05:28:40;100083.78;;;8.00;78.49
4745;BME280;2386;42.138;24.746;2023-03-17T05:31:06;100084.16;;;7.90;78.32
4745;BME280;2386;42.138;24.746;2023-03-17T05:33:32;100086.88;;;7.97;77.61
4745;BME280;2386;42.138;24.746;2023-03-17T05:35:57;100089.84;;;8.08;78.24
4745;BME280;2386;42.138;24.746;2023-03-17T05:38:23;100087.13;;;8.08;78.47
4745;BME280;2386;42.138;24.746;2023-03-17T05:40:49;100081.94;;;8.07;77.70
4745;BME280;2386;42.138;24.746;2023-03-17T05:43:15;100090.91;;;8.27;77.67
4745;BME280;2386;42.138;24.746;2023-03-17T05:45:41;100088.47;;;8.39;77.10
4745;BME280;2386;42.138;24.746;2023-03-17T05:48:06;100086.81;;;8.51;76.53
4745;BME280;2386;42.138;24.746;2023-03-17T05:50:32;100082.84;;;8.40;75.72
4745;BME280;2386;42.138;24.746;2023-03-17T05:52:58;100105.50;;;8.39;75.45
4745;BME280;2386;42.138;24.746;2023-03-17T05:55:23;100102.94;;;8.24;76.04
4745;BME280;2386;42.138;24.746;2023-03-17T05:57:48;100107.19;;;8.40;76.12
4745;BME280;2386;42.138;24.746;2023-03-17T06:00:14;100107.63;;;8.64;75.92
4745;BME280;2386;42.138;24.746;2023-03-17T06:02:43;100105.56;;;8.59;74.26
4745;BME280;2386;42.138;24.746;2023-03-17T06:05:08;100118.44;;;8.64;74.68
4745;BME280;2386;42.138;24.746;2023-03-17T06:07:34;100121.38;;;8.69;74.57
4745;BME280;2386;42.138;24.746;2023-03-17T06:10:01;100127.00;;;8.87;74.08
4745;BME280;2386;42.138;24.746;2023-03-17T06:12:26;100133.69;;;8.91;72.62
4745;BME280;2386;42.138;24.746;2023-03-17T06:14:51;100127.63;;;8.89;72.42
4745;BME280;2386;42.138;24.746;2023-03-17T06:17:17;100135.53;;;8.84;72.42
4745;BME280;2386;42.138;24.746;2023-03-17T06:19:42;100127.63;;;8.96;72.72
4745;BME280;2386;42.138;24.746;2023-03-17T06:22:08;100132.59;;;9.18;72.33
4745;BME280;2386;42.138;24.746;2023-03-17T06:24:34;100132.19;;;9.41;72.26
4745;BME280;2386;42.138;24.746;2023-03-17T06:26:59;100123.84;;;9.43;71.64
4745;BME280;2386;42.138;24.746;2023-03-17T06:29:25;100135.47;;;9.57;70.42
4745;BME280;2386;42.138;24.746;2023-03-17T06:31:52;100130.91;;;9.57;70.52
4745;BME280;2386;42.138;24.746;2023-03-17T06:34:19;100144.47;;;9.24;69.31
4745;BME280;2386;42.138;24.746;2023-03-17T06:36:45;100152.19;;;9.07;70.20
4745;BME280;2386;42.138;24.746;2023-03-17T06:39:11;100144.69;;;8.83;70.37
4745;BME280;2386;42.138;24.746;2023-03-17T06:41:37;100144.50;;;8.84;70.23
4745;BME280;2386;42.138;24.746;2023-03-17T06:44:03;100154.88;;;8.94;70.47
4745;BME280;2386;42.138;24.746;2023-03-17T06:46:30;100153.66;;;8.90;71.84
4745;BME280;2386;42.138;24.746;2023-03-17T06:48:56;100155.09;;;9.12;71.60
4745;BME280;2386;42.138;24.746;2023-03-17T06:51:21;100149.25;;;8.69;72.05
4745;BME280;2386;42.138;24.746;2023-03-17T06:53:47;100144.50;;;8.91;72.49
4745;BME280;2386;42.138;24.746;2023-03-17T06:56:12;100148.00;;;9.05;71.72
4745;BME280;2386;42.138;24.746;2023-03-17T06:58:38;100151.34;;;9.20;73.17
4745;BME280;2386;42.138;24.746;2023-03-17T07:01:04;100158.22;;;9.16;70.89
4745;BME280;2386;42.138;24.746;2023-03-17T07:03:32;100150.94;;;9.03;71.49
4745;BME280;2386;42.138;24.746;2023-03-17T07:05:58;100152.59;;;9.11;71.23
4745;BME280;2386;42.138;24.746;2023-03-17T07:08:24;100157.81;;;9.12;70.33
4745;BME280;2386;42.138;24.746;2023-03-17T07:10:49;100169.25;;;9.28;70.76
4745;BME280;2386;42.138;24.746;2023-03-17T07:13:15;100161.34;;;9.26;70.69
4745;BME280;2386;42.138;24.746;2023-03-17T07:15:44;100165.50;;;9.09;70.30
4745;BME280;2386;42.138;24.746;2023-03-17T07:18:09;100161.34;;;9.26;71.20
4745;BME280;2386;42.138;24.746;2023-03-17T07:20:35;100163.22;;;9.19;70.22
4745;BME280;2386;42.138;24.746;2023-03-17T07:23:01;100178.00;;;9.43;69.25
4745;BME280;2386;42.138;24.746;2023-03-17T07:25:26;100175.69;;;9.46;68.30
4745;BME280;2386;42.138;24.746;2023-03-17T07:27:52;100181.09;;;9.53;69.24
4745;BME280;2386;42.138;24.746;2023-03-17T07:30:17;100173.41;;;9.50;69.75
4745;BME280;2386;42.138;24.746;2023-03-17T07:32:46;100173.81;;;9.60;68.47
4745;BME280;2386;42.138;24.746;2023-03-17T07:35:12;100170.47;;;9.58;67.06
4745;BME280;2386;42.138;24.746;2023-03-17T07:37:40;100178.81;;;9.57;66.51
4745;BME280;2386;42.138;24.746;2023-03-17T07:40:06;100169.25;;;9.47;67.58
4745;BME280;2386;42.138;24.746;2023-03-17T07:42:35;100166.88;;;9.71;65.78
4745;BME280;2386;42.138;24.746;2023-03-17T07:45:00;100165.59;;;9.86;65.03
4745;BME280;2386;42.138;24.746;2023-03-17T07:47:26;100171.19;;;10.05;64.43
4745;BME280;2386;42.138;24.746;2023-03-17T07:49:51;100168.47;;;10.05;62.84
4745;BME280;2386;42.138;24.746;2023-03-17T07:52:17;100170.31;;;10.11;60.62
4745;BME280;2386;42.138;24.746;2023-03-17T07:54:43;100156.16;;;10.09;60.54
4745;BME280;2386;42.138;24.746;2023-03-17T07:57:09;100167.34;;;10.32;58.91
4745;BME280;2386;42.138;24.746;2023-03-17T07:59:35;100154.41;;;10.34;57.13
4745;BME280;2386;42.138;24.746;2023-03-17T08:02:00;100155.28;;;10.15;58.53
4745;BME280;2386;42.138;24.746;2023-03-17T08:04:26;100152.19;;;10.11;59.11
4745;BME280;2386;42.138;24.746;2023-03-17T08:06:52;100145.75;;;10.06;59.28
4745;BME280;2386;42.138;24.746;2023-03-17T08:09:19;100159.44;;;10.31;59.43
4745;BME280;2386;42.138;24.746;2023-03-17T08:11:46;100149.75;;;10.41;59.25
4745;BME280;2386;42.138;24.746;2023-03-17T08:14:12;100144.69;;;10.51;58.64
4745;BME280;2386;42.138;24.746;2023-03-17T08:16:37;100138.28;;;10.77;57.68
4745;BME280;2386;42.138;24.746;2023-03-17T08:19:03;100156.66;;;11.07;55.75
4745;BME280;2386;42.138;24.746;2023-03-17T08:21:28;100159.50;;;10.87;54.99
4745;BME280;2386;42.138;24.746;2023-03-17T08:23:55;100161.13;;;11.19;55.20
4745;BME280;2386;42.138;24.746;2023-03-17T08:26:21;100153.81;;;10.64;53.49
4745;BME280;2386;42.138;24.746;2023-03-17T08:28:47;100145.06;;;10.62;52.81
4745;BME280;2386;42.138;24.746;2023-03-17T08:31:16;100163.66;;;10.58;52.73
4745;BME280;2386;42.138;24.746;2023-03-17T08:33:45;100156.22;;;10.78;53.10
4745;BME280;2386;42.138;24.746;2023-03-17T08:36:11;100165.63;;;11.07;51.82
4745;BME280;2386;42.138;24.746;2023-03-17T08:38:38;100146.84;;;10.74;52.96
4745;BME280;2386;42.138;24.746;2023-03-17T08:41:06;100149.44;;;10.94;52.47
4745;BME280;2386;42.138;24.746;2023-03-17T08:43:33;100155.28;;;11.41;52.61
4745;BME280;2386;42.138;24.746;2023-03-17T08:46:23;100145.53;;;11.33;51.17
4745;BME280;2386;42.138;24.746;2023-03-17T08:48:52;100146.19;;;11.29;50.43
4745;BME280;2386;42.138;24.746;2023-03-17T08:51:20;100147.44;;;10.83;51.05
4745;BME280;2386;42.138;24.746;2023-03-17T08:53:45;100145.44;;;10.65;52.23
4745;BME280;2386;42.138;24.746;2023-03-17T08:56:11;100145.06;;;10.62;52.25
4745;BME280;2386;42.138;24.746;2023-03-17T08:58:37;100138.66;;;10.81;51.63
4745;BME280;2386;42.138;24.746;2023-03-17T09:01:07;100145.28;;;10.92;51.59
4745;BME280;2386;42.138;24.746;2023-03-17T09:03:33;100141.13;;;10.89;51.89
4745;BME280;2386;42.138;24.746;2023-03-17T09:05:59;100140.56;;;11.05;51.88
4745;BME280;2386;42.138;24.746;2023-03-17T09:08:25;100141.34;;;11.12;51.69
4745;BME280;2386;42.138;24.746;2023-03-17T09:10:52;100146.94;;;11.17;51.93
4745;BME280;2386;42.138;24.746;2023-03-17T09:13:20;100140.78;;;11.29;51.49
4745;BME280;2386;42.138;24.746;2023-03-17T09:15:46;100142.44;;;11.30;51.31
4745;BME280;2386;42.138;24.746;2023-03-17T09:18:11;100152.97;;;11.44;51.69
4745;BME280;2386;42.138;24.746;2023-03-17T09:20:37;100147.31;;;11.46;50.99
4745;BME280;2386;42.138;24.746;2023-03-17T09:23:07;100148.47;;;11.32;51.35
4745;BME280;2386;42.138;24.746;2023-03-17T09:25:37;100147.84;;;11.11;51.89
4745;BME280;2386;42.138;24.746;2023-03-17T09:28:03;100143.47;;;11.10;51.25
4745;BME280;2386;42.138;24.746;2023-03-17T09:30:29;100149.63;;;11.42;51.45
4745;BME280;2386;42.138;24.746;2023-03-17T09:32:54;100140.75;;;11.53;50.86
4745;BME280;2386;42.138;24.746;2023-03-17T09:35:20;100147.03;;;11.72;50.96
4745;BME280;2386;42.138;24.746;2023-03-17T09:37:47;100131.47;;;11.61;50.34
4745;BME280;2386;42.138;24.746;2023-03-17T09:40:15;100136.25;;;11.66;48.80
4745;BME280;2386;42.138;24.746;2023-03-17T09:42:59;100140.56;;;11.73;49.65
4745;BME280;2386;42.138;24.746;2023-03-17T09:45:34;100142.31;;;11.86;48.12
4745;BME280;2386;42.138;24.746;2023-03-17T09:48:21;100145.25;;;12.03;47.01
4745;BME280;2386;42.138;24.746;2023-03-17T09:50:58;100134.50;;;12.26;45.78
4745;BME280;2386;42.138;24.746;2023-03-17T09:53:49;100134.88;;;12.30;47.12
4745;BME280;2386;42.138;24.746;2023-03-17T09:56:16;100143.88;;;12.60;45.69
4745;BME280;2386;42.138;24.746;2023-03-17T09:59:27;100134.59;;;12.91;46.39
4745;BME280;2386;42.138;24.746;2023-03-17T10:01:53;100140.03;;;12.91;45.39
4745;BME280;2386;42.138;24.746;2023-03-17T10:04:19;100132.41;;;12.70;45.00
4745;BME280;2386;42.138;24.746;2023-03-17T10:06:45;100139.72;;;12.58;46.27
4745;BME280;2386;42.138;24.746;2023-03-17T10:11:50;100120.91;;;13.09;43.88
4745;BME280;2386;42.138;24.746;2023-03-17T10:17:25;100130.50;;;12.59;44.82
4745;BME280;2386;42.138;24.746;2023-03-17T10:19:59;100121.41;;;12.35;45.27
4745;BME280;2386;42.138;24.746;2023-03-17T10:25:09;100131.22;;;12.66;44.29
4745;BME280;2386;42.138;24.746;2023-03-17T10:27:39;100125.09;;;12.82;44.47
4745;BME280;2386;42.138;24.746;2023-03-17T10:30:17;100123.75;;;13.14;43.87
4745;BME280;2386;42.138;24.746;2023-03-17T10:32:43;100111.47;;;13.35;43.56
4745;BME280;2386;42.138;24.746;2023-03-17T10:35:09;100109.59;;;13.36;44.05
4745;BME280;2386;42.138;24.746;2023-03-17T10:37:35;100117.03;;;13.40;42.76
4745;BME280;2386;42.138;24.746;2023-03-17T10:40:04;100118.47;;;13.31;43.72
4745;BME280;2386;42.138;24.746;2023-03-17T10:42:44;100110.00;;;13.09;43.94
4745;BME280;2386;42.138;24.746;2023-03-17T10:45:15;100115.31;;;12.93;44.18
4745;BME280;2386;42.138;24.746;2023-03-17T10:47:48;100108.94;;;12.99;43.88
4745;BME280;2386;42.138;24.746;2023-03-17T10:52:41;100107.09;;;13.23;43.19
4745;BME280;2386;42.138;24.746;2023-03-17T10:55:10;100105.19;;;13.23;42.42
4745;BME280;2386;42.138;24.746;2023-03-17T10:57:37;100097.88;;;12.82;43.14
4745;BME280;2386;42.138;24.746;2023-03-17T11:00:13;100110.63;;;12.58;43.33
4745;BME280;2386;42.138;24.746;2023-03-17T11:02:46;100101.88;;;12.68;42.64
4745;BME280;2386;42.138;24.746;2023-03-17T11:05:24;100105.50;;;13.03;42.69
4745;BME280;2386;42.138;24.746;2023-03-17T11:10:54;100107.97;;;12.93;42.70
4745;BME280;2386;42.138;24.746;2023-03-17T11:13:27;100108.75;;;13.24;42.07
4745;BME280;2386;42.138;24.746;2023-03-17T11:18:35;100099.84;;;13.52;41.78
4745;BME280;2386;42.138;24.746;2023-03-17T11:21:10;100093.91;;;13.55;41.94
4745;BME280;2386;42.138;24.746;2023-03-17T11:23:58;100091.88;;;13.62;41.21
4745;BME280;2386;42.138;24.746;2023-03-17T11:31:53;100080.63;;;13.70;43.55
4745;BME280;2386;42.138;24.746;2023-03-17T11:39:59;100075.00;;;13.88;41.52
4745;BME280;2386;42.138;24.746;2023-03-17T11:45:26;100076.19;;;13.92;42.29
4745;BME280;2386;42.138;24.746;2023-03-17T11:48:05;100075.84;;;13.89;42.05
4745;BME280;2386;42.138;24.746;2023-03-17T11:53:49;100074.00;;;13.54;43.27
4745;BME280;2386;42.138;24.746;2023-03-17T11:56:20;100074.72;;;13.38;43.46
4745;BME280;2386;42.138;24.746;2023-03-17T11:58:54;100064.56;;;13.33;43.96
4745;BME280;2386;42.138;24.746;2023-03-17T12:01:27;100072.75;;;12.68;44.30
4745;BME280;2386;42.138;24.746;2023-03-17T12:06:51;100077.94;;;13.23;42.96
4745;BME280;2386;42.138;24.746;2023-03-17T12:09:31;100066.47;;;13.33;42.84
4745;BME280;2386;42.138;24.746;2023-03-17T12:12:01;100070.50;;;13.30;44.13
4745;BME280;2386;42.138;24.746;2023-03-17T12:14:43;100076.13;;;13.52;43.53
4745;BME280;2386;42.138;24.746;2023-03-17T12:17:21;100072.94;;;13.43;43.50
4745;BME280;2386;42.138;24.746;2023-03-17T12:22:37;100059.47;;;13.37;43.38
4745;BME280;2386;42.138;24.746;2023-03-17T12:25:22;100066.78;;;13.48;42.42
4745;BME280;2386;42.138;24.746;2023-03-17T12:28:00;100064.34;;;13.35;42.86
4745;BME280;2386;42.138;24.746;2023-03-17T12:30:53;100055.91;;;13.36;42.57
4745;BME280;2386;42.138;24.746;2023-03-17T12:36:23;100059.44;;;13.02;43.84
4745;BME280;2386;42.138;24.746;2023-03-17T12:55:31;100065.22;;;12.82;43.21
4745;BME280;2386;42.138;24.746;2023-03-17T12:58:03;100057.75;;;12.77;43.61
4745;BME280;2386;42.138;24.746;2023-03-17T13:00:31;100063.94;;;12.96;43.00
4745;BME280;2386;42.138;24.746;2023-03-17T13:03:23;100065.22;;;12.82;43.95
4745;BME280;2386;42.138;24.746;2023-03-17T13:05:53;100069.03;;;13.04;43.01
4745;BME280;2386;42.138;24.746;2023-03-17T13:08:37;100056.88;;;13.19;43.91
4745;BME280;2386;42.138;24.746;2023-03-17T13:16:32;100060.31;;;13.26;42.53
4745;BME280;2386;42.138;24.746;2023-03-17T13:19:17;100061.00;;;13.33;43.20
4745;BME280;2386;42.138;24.746;2023-03-17T13:21:51;100059.78;;;13.52;43.16
4745;BME280;2386;42.138;24.746;2023-03-17T13:34:54;100045.81;;;13.48;42.90
4745;BME280;2386;42.138;24.746;2023-03-17T13:37:33;100051.31;;;13.77;42.14
4745;BME280;2386;42.138;24.746;2023-03-17T13:48:47;100048.66;;;14.22;42.64
4745;BME280;2386;42.138;24.746;2023-03-17T13:51:18;100046.09;;;14.44;42.47
4745;BME280;2386;42.138;24.746;2023-03-17T13:53:55;100063.16;;;14.51;41.47
4745;BME280;2386;42.138;24.746;2023-03-17T14:01:25;100055.19;;;14.50;41.65
4745;BME280;2386;42.138;24.746;2023-03-17T14:03:53;100057.97;;;14.38;41.16
4745;BME280;2386;42.138;24.746;2023-03-17T14:06:23;100053.91;;;14.12;41.08
4745;BME280;2386;42.138;24.746;2023-03-17T14:09:08;100059.38;;;14.12;42.43
4745;BME280;2386;42.138;24.746;2023-03-17T14:11:36;100057.75;;;14.11;41.11
4745;BME280;2386;42.138;24.746;2023-03-17T14:14:39;100057.34;;;13.91;41.81
4745;BME280;2386;42.138;24.746;2023-03-17T14:17:23;100061.97;;;13.90;42.25
4745;BME280;2386;42.138;24.746;2023-03-17T14:20:15;100065.69;;;13.72;42.20
4745;BME280;2386;42.138;24.746;2023-03-17T14:22:46;100060.34;;;13.66;41.63
4745;BME280;2386;42.138;24.746;2023-03-17T14:25:38;100062.75;;;13.51;42.43
4745;BME280;2386;42.138;24.746;2023-03-17T14:28:06;100051.84;;;13.39;42.40
4745;BME280;2386;42.138;24.746;2023-03-17T14:30:33;100068.72;;;13.24;42.93
4745;BME280;2386;42.138;24.746;2023-03-17T14:33:19;100066.22;;;13.23;42.53
4745;BME280;2386;42.138;24.746;2023-03-17T14:35:49;100069.03;;;13.04;43.24
4745;BME280;2386;42.138;24.746;2023-03-17T14:38:21;100062.75;;;12.92;42.99
4745;BME280;2386;42.138;24.746;2023-03-17T14:40:48;100066.31;;;13.04;42.84
4745;BME280;2386;42.138;24.746;2023-03-17T14:43:15;100069.38;;;12.96;42.33
4745;BME280;2386;42.138;24.746;2023-03-17T14:45:48;100070.44;;;12.95;41.96
4745;BME280;2386;42.138;24.746;2023-03-17T14:48:16;100066.84;;;12.71;42.33
4745;BME280;2386;42.138;24.746;2023-03-17T14:50:55;100074.88;;;12.66;42.13
4745;BME280;2386;42.138;24.746;2023-03-17T14:53:22;100075.94;;;12.54;43.13
4745;BME280;2386;42.138;24.746;2023-03-17T14:55:50;100067.97;;;12.40;43.50
4745;BME280;2386;42.138;24.746;2023-03-17T14:58:25;100074.00;;;12.42;42.71